sensor_id;sensor_type;location;lat;lon;timestamp;temperature;humidity
50586;DHT22;36542;51.700;8.846;2023-03-05T00:01:04;2.00;99.90
50586;DHT22;36542;51.700;8.846;2023-03-05T00:03:30;2.00;99.90
50586;DHT22;36542;51.700;8.846;2023-03-05T00:05:56;2.00;99.90
50586;DHT22;36542;51.700;8.846;2023-03-05T00:08:22;2.00;99.90
50586;DHT22;36542;51.700;8.846;2023-03-05T00:10:59;2.00;99.90
50586;DHT22;36542;51.700;8.846;2023-03-05T00:13:25;2.00;99.90
50586;DHT22;36542;51.700;8.846;2023-03-05T00:15:51;1.90;99.90
50586;DHT22;36542;51.700;8.846;2023-03-05T00:18:16;2.00;99.90
50586;DHT22;36542;51.700;8.846;2023-03-05T00:20:42;2.00;99.90
50586;DHT22;36542;51.700;8.846;2023-03-05T00:23:07;2.00;99.90
50586;DHT22;36542;51.700;8.846;2023-03-05T00:25:37;2.00;99.90
50586;DHT22;36542;51.700;8.846;2023-03-05T00:28:03;2.00;99.90
50586;DHT22;36542;51.700;8.846;2023-03-05T00:30:30;2.00;99.90
50586;DHT22;36542;51.700;8.846;2023-03-05T00:32:55;1.90;99.90
50586;DHT22;36542;51.700;8.846;2023-03-05T00:35:21;1.90;99.90
50586;DHT22;36542;51.700;8.846;2023-03-05T00:37:46;1.90;99.90
50586;DHT22;36542;51.700;8.846;2023-03-05T00:40:12;2.00;99.90
50586;DHT22;36542;51.700;8.846;2023-03-05T00:42:37;2.00;99.90
50586;DHT22;36542;51.700;8.846;2023-03-05T00:45:07;2.00;99.90
50586;DHT22;36542;51.700;8.846;2023-03-05T00:47:34;1.90;99.90
50586;DHT22;36542;51.700;8.846;2023-03-05T00:50:00;2.00;99.90
50586;DHT22;36542;51.700;8.846;2023-03-05T00:52:25;2.00;99.90
50586;DHT22;36542;51.700;8.846;2023-03-05T00:54:51;2.00;99.90
50586;DHT22;36542;51.700;8.846;2023-03-05T00:57:16;2.00;99.90
50586;DHT22;36542;51.700;8.846;2023-03-05T00:59:42;2.00;99.90
50586;DHT22;36542;51.700;8.846;2023-03-05T01:02:07;2.00;99.90
50586;DHT22;36542;51.700;8.846;2023-03-05T01:04:33;2.00;99.90
50586;DHT22;36542;51.700;8.846;2023-03-05T01:06:59;2.00;99.90
50586;DHT22;36542;51.700;8.846;2023-03-05T01:09:24;2.00;99.90
50586;DHT22;36542;51.700;8.846;2023-03-05T01:11:51;2.00;99.90
50586;DHT22;36542;51.700;8.846;2023-03-05T01:14:17;2.00;99.90
50586;DHT22;36542;51.700;8.846;2023-03-05T01:16:43;2.00;99.90
50586;DHT22;36542;51.700;8.846;2023-03-05T01:19:09;2.00;99.90
50586;DHT22;36542;51.700;8.846;2023-03-05T01:21:36;2.00;99.90
50586;DHT22;36542;51.700;8.846;2023-03-05T01:24:02;2.00;99.90
50586;DHT22;36542;51.700;8.846;2023-03-05T01:26:28;1.90;99.90
50586;DHT22;36542;51.700;8.846;2023-03-05T01:28:54;2.00;99.90
50586;DHT22;36542;51.700;8.846;2023-03-05T01:31:19;2.00;99.90
50586;DHT22;36542;51.700;8.846;2023-03-05T01:33:45;2.00;99.90
50586;DHT22;36542;51.700;8.846;2023-03-05T01:36:13;2.00;99.90
50586;DHT22;36542;51.700;8.846;2023-03-05T01:38:42;2.00;99.90
50586;DHT22;36542;51.700;8.846;2023-03-05T01:41:08;2.00;99.90
50586;DHT22;36542;51.700;8.846;2023-03-05T01:43:35;2.00;99.90
50586;DHT22;36542;51.700;8.846;2023-03-05T01:48:43;2.00;99.90
50586;DHT22;36542;51.700;8.846;2023-03-05T01:51:10;2.00;99.90
50586;DHT22;36542;51.700;8.846;2023-03-05T01:53:36;2.00;99.90
50586;DHT22;36542;51.700;8.846;2023-03-05T01:56:02;2.00;99.90
50586;DHT22;36542;51.700;8.846;2023-03-05T01:58:27;2.00;99.90
50586;DHT22;36542;51.700;8.846;2023-03-05T02:00:54;2.00;99.90
50586;DHT22;36542;51.700;8.846;2023-03-05T02:03:21;2.00;99.90
50586;DHT22;36542;51.700;8.846;2023-03-05T02:05:47;2.00;99.90
50586;DHT22;36542;51.700;8.846;2023-03-05T02:08:15;2.00;99.90
50586;DHT22;36542;51.700;8.846;2023-03-05T02:10:47;2.00;99.90
50586;DHT22;36542;51.700;8.846;2023-03-05T02:13:16;2.00;99.90
50586;DHT22;36542;51.700;8.846;2023-03-05T02:15:42;2.00;99.90
50586;DHT22;36542;51.700;8.846;2023-03-05T02:18:08;1.90;99.90
50586;DHT22;36542;51.700;8.846;2023-03-05T02:23:23;1.90;99.90
50586;DHT22;36542;51.700;8.846;2023-03-05T02:25:50;1.80;99.90
50586;DHT22;36542;51.700;8.846;2023-03-05T02:28:35;1.80;99.90
50586;DHT22;36542;51.700;8.846;2023-03-05T02:31:17;1.80;99.90
50586;DHT22;36542;51.700;8.846;2023-03-05T02:33:43;1.70;99.90
50586;DHT22;36542;51.700;8.846;2023-03-05T02:36:09;1.70;99.90
50586;DHT22;36542;51.700;8.846;2023-03-05T02:38:37;1.70;99.90
50586;DHT22;36542;51.700;8.846;2023-03-05T02:41:03;1.60;99.90
50586;DHT22;36542;51.700;8.846;2023-03-05T02:43:28;1.60;99.90
50586;DHT22;36542;51.700;8.846;2023-03-05T02:45:54;1.60;99.90
50586;DHT22;36542;51.700;8.846;2023-03-05T02:48:19;1.60;99.90
50586;DHT22;36542;51.700;8.846;2023-03-05T02:50:45;1.70;99.90
50586;DHT22;36542;51.700;8.846;2023-03-05T02:53:12;1.60;99.90
50586;DHT22;36542;51.700;8.846;2023-03-05T02:55:37;1.70;99.90
50586;DHT22;36542;51.700;8.846;2023-03-05T02:58:03;1.70;99.90
50586;DHT22;36542;51.700;8.846;2023-03-05T03:00:28;1.70;99.90
50586;DHT22;36542;51.700;8.846;2023-03-05T03:02:54;1.70;99.90
50586;DHT22;36542;51.700;8.846;2023-03-05T03:05:19;1.70;99.90
50586;DHT22;36542;51.700;8.846;2023-03-05T03:07:45;1.70;99.90
50586;DHT22;36542;51.700;8.846;2023-03-05T03:10:11;1.70;99.90
50586;DHT22;36542;51.700;8.846;2023-03-05T03:12:41;1.70;99.90
50586;DHT22;36542;51.700;8.846;2023-03-05T03:15:08;1.70;99.90
50586;DHT22;36542;51.700;8.846;2023-03-05T03:17:35;1.70;99.90
50586;DHT22;36542;51.700;8.846;2023-03-05T03:20:02;1.70;99.90
50586;DHT22;36542;51.700;8.846;2023-03-05T03:22:28;1.70;99.90
50586;DHT22;36542;51.700;8.846;2023-03-05T03:24:53;1.70;99.90
50586;DHT22;36542;51.700;8.846;2023-03-05T03:27:20;1.70;99.90
50586;DHT22;36542;51.700;8.846;2023-03-05T03:29:46;1.70;99.90
50586;DHT22;36542;51.700;8.846;2023-03-05T03:32:11;1.70;99.90
50586;DHT22;36542;51.700;8.846;2023-03-05T03:34:37;1.70;99.90
50586;DHT22;36542;51.700;8.846;2023-03-05T03:37:02;1.70;99.90
50586;DHT22;36542;51.700;8.846;2023-03-05T03:39:28;1.70;99.90
50586;DHT22;36542;51.700;8.846;2023-03-05T03:41:53;1.70;99.90
50586;DHT22;36542;51.700;8.846;2023-03-05T03:44:19;1.70;99.90
50586;DHT22;36542;51.700;8.846;2023-03-05T03:46:46;1.70;99.90
50586;DHT22;36542;51.700;8.846;2023-03-05T03:49:18;1.70;99.90
50586;DHT22;36542;51.700;8.846;2023-03-05T03:51:45;1.70;99.90
50586;DHT22;36542;51.700;8.846;2023-03-05T03:54:12;1.70;99.90
50586;DHT22;36542;51.700;8.846;2023-03-05T03:56:37;1.70;99.90
50586;DHT22;36542;51.700;8.846;2023-03-05T03:59:03;1.70;99.90
50586;DHT22;36542;51.700;8.846;2023-03-05T04:01:28;1.70;99.90
50586;DHT22;36542;51.700;8.846;2023-03-05T04:03:54;1.70;99.90
50586;DHT22;36542;51.700;8.846;2023-03-05T04:06:19;1.70;99.90
50586;DHT22;36542;51.700;8.846;2023-03-05T04:08:45;1.80;99.90
50586;DHT22;36542;51.700;8.846;2023-03-05T04:11:10;1.80;99.90
50586;DHT22;36542;51.700;8.846;2023-03-05T04:13:36;1.80;99.90
50586;DHT22;36542;51.700;8.846;2023-03-05T04:16:01;1.80;99.90
50586;DHT22;36542;51.700;8.846;2023-03-05T04:18:27;1.70;99.90
50586;DHT22;36542;51.700;8.846;2023-03-05T04:20:53;1.70;99.90
50586;DHT22;36542;51.700;8.846;2023-03-05T04:23:18;1.70;99.90
50586;DHT22;36542;51.700;8.846;2023-03-05T04:25:43;1.70;99.90
50586;DHT22;36542;51.700;8.846;2023-03-05T04:28:09;1.70;99.90
50586;DHT22;36542;51.700;8.846;2023-03-05T04:30:34;1.80;99.90
50586;DHT22;36542;51.700;8.846;2023-03-05T04:33:00;1.80;99.90
50586;DHT22;36542;51.700;8.846;2023-03-05T04:35:26;1.80;99.90
50586;DHT22;36542;51.700;8.846;2023-03-05T04:37:51;1.70;99.90
50586;DHT22;36542;51.700;8.846;2023-03-05T04:40:18;1.70;99.90
50586;DHT22;36542;51.700;8.846;2023-03-05T04:42:44;1.70;99.90
50586;DHT22;36542;51.700;8.846;2023-03-05T04:45:09;1.70;99.90
50586;DHT22;36542;51.700;8.846;2023-03-05T04:47:36;1.70;99.90
50586;DHT22;36542;51.700;8.846;2023-03-05T04:50:03;1.70;99.90
50586;DHT22;36542;51.700;8.846;2023-03-05T04:52:28;1.70;99.90
50586;DHT22;36542;51.700;8.846;2023-03-05T04:54:54;1.70;99.90
50586;DHT22;36542;51.700;8.846;2023-03-05T04:57:19;1.70;99.90
50586;DHT22;36542;51.700;8.846;2023-03-05T04:59:45;1.70;99.90
50586;DHT22;36542;51.700;8.846;2023-03-05T05:02:11;1.70;99.90
50586;DHT22;36542;51.700;8.846;2023-03-05T05:04:36;1.70;99.90
50586;DHT22;36542;51.700;8.846;2023-03-05T05:07:02;1.70;99.90
50586;DHT22;36542;51.700;8.846;2023-03-05T05:09:28;1.70;99.90
50586;DHT22;36542;51.700;8.846;2023-03-05T05:11:54;1.70;99.90
50586;DHT22;36542;51.700;8.846;2023-03-05T05:14:20;1.70;99.90
50586;DHT22;36542;51.700;8.846;2023-03-05T05:16:45;1.70;99.90
50586;DHT22;36542;51.700;8.846;2023-03-05T05:19:11;1.70;99.90
50586;DHT22;36542;51.700;8.846;2023-03-05T05:21:36;1.70;99.90
50586;DHT22;36542;51.700;8.846;2023-03-05T05:24:02;1.70;99.90
50586;DHT22;36542;51.700;8.846;2023-03-05T05:26:28;1.70;99.90
50586;DHT22;36542;51.700;8.846;2023-03-05T05:28:53;1.70;99.90
50586;DHT22;36542;51.700;8.846;2023-03-05T05:31:19;1.70;99.90
50586;DHT22;36542;51.700;8.846;2023-03-05T05:33:44;1.70;99.90
50586;DHT22;36542;51.700;8.846;2023-03-05T05:36:13;1.70;99.90
50586;DHT22;36542;51.700;8.846;2023-03-05T05:38:39;1.70;99.90
50586;DHT22;36542;51.700;8.846;2023-03-05T05:41:08;1.70;99.90
50586;DHT22;36542;51.700;8.846;2023-03-05T05:43:34;1.70;99.90
50586;DHT22;36542;51.700;8.846;2023-03-05T05:46:04;1.70;99.90
50586;DHT22;36542;51.700;8.846;2023-03-05T05:48:32;1.70;99.90
50586;DHT22;36542;51.700;8.846;2023-03-05T05:50:59;1.60;99.90
50586;DHT22;36542;51.700;8.846;2023-03-05T05:53:28;1.70;99.90
50586;DHT22;36542;51.700;8.846;2023-03-05T05:55:54;1.70;99.90
50586;DHT22;36542;51.700;8.846;2023-03-05T05:58:19;1.70;99.90
50586;DHT22;36542;51.700;8.846;2023-03-05T06:00:45;1.60;99.90
50586;DHT22;36542;51.700;8.846;2023-03-05T06:03:10;1.70;99.90
50586;DHT22;36542;51.700;8.846;2023-03-05T06:05:36;1.60;99.90
50586;DHT22;36542;51.700;8.846;2023-03-05T06:08:01;1.60;99.90
50586;DHT22;36542;51.700;8.846;2023-03-05T06:10:27;1.70;99.90
50586;DHT22;36542;51.700;8.846;2023-03-05T06:12:52;1.60;99.90
50586;DHT22;36542;51.700;8.846;2023-03-05T06:15:18;1.60;99.90
50586;DHT22;36542;51.700;8.846;2023-03-05T06:17:44;1.60;99.90
50586;DHT22;36542;51.700;8.846;2023-03-05T06:20:10;1.60;99.90
50586;DHT22;36542;51.700;8.846;2023-03-05T06:22:37;1.60;99.90
50586;DHT22;36542;51.700;8.846;2023-03-05T06:25:03;1.70;99.90
50586;DHT22;36542;51.700;8.846;2023-03-05T06:27:29;1.60;99.90
50586;DHT22;36542;51.700;8.846;2023-03-05T06:29:54;1.60;99.90
50586;DHT22;36542;51.700;8.846;2023-03-05T06:32:21;1.60;99.90
50586;DHT22;36542;51.700;8.846;2023-03-05T06:34:47;1.60;99.90
50586;DHT22;36542;51.700;8.846;2023-03-05T06:37:13;1.60;99.90
50586;DHT22;36542;51.700;8.846;2023-03-05T06:39:38;1.70;99.90
50586;DHT22;36542;51.700;8.846;2023-03-05T06:42:04;1.70;99.90
50586;DHT22;36542;51.700;8.846;2023-03-05T06:44:29;1.70;99.90
50586;DHT22;36542;51.700;8.846;2023-03-05T06:46:55;1.70;99.90
50586;DHT22;36542;51.700;8.846;2023-03-05T06:49:20;1.70;99.90
50586;DHT22;36542;51.700;8.846;2023-03-05T06:51:46;1.70;99.90
50586;DHT22;36542;51.700;8.846;2023-03-05T06:54:13;1.70;99.90
50586;DHT22;36542;51.700;8.846;2023-03-05T06:56:44;1.70;99.90
50586;DHT22;36542;51.700;8.846;2023-03-05T06:59:12;1.60;99.90
50586;DHT22;36542;51.700;8.846;2023-03-05T07:01:37;1.60;99.90
50586;DHT22;36542;51.700;8.846;2023-03-05T07:04:03;1.50;99.90
50586;DHT22;36542;51.700;8.846;2023-03-05T07:06:34;1.40;99.90
50586;DHT22;36542;51.700;8.846;2023-03-05T07:09:01;1.30;99.90
50586;DHT22;36542;51.700;8.846;2023-03-05T07:11:27;1.20;99.90
50586;DHT22;36542;51.700;8.846;2023-03-05T07:13:52;1.30;99.90
50586;DHT22;36542;51.700;8.846;2023-03-05T07:16:22;1.20;99.90
50586;DHT22;36542;51.700;8.846;2023-03-05T07:18:48;1.20;99.90
50586;DHT22;36542;51.700;8.846;2023-03-05T07:21:20;1.20;99.90
50586;DHT22;36542;51.700;8.846;2023-03-05T07:23:45;1.20;99.90
50586;DHT22;36542;51.700;8.846;2023-03-05T07:26:11;1.20;99.90
50586;DHT22;36542;51.700;8.846;2023-03-05T07:28:37;1.30;99.90
50586;DHT22;36542;51.700;8.846;2023-03-05T07:31:09;1.30;99.90
50586;DHT22;36542;51.700;8.846;2023-03-05T07:33:36;1.30;99.90
50586;DHT22;36542;51.700;8.846;2023-03-05T07:36:03;1.40;99.90
50586;DHT22;36542;51.700;8.846;2023-03-05T07:38:30;1.50;99.90
50586;DHT22;36542;51.700;8.846;2023-03-05T07:40:56;1.50;99.90
50586;DHT22;36542;51.700;8.846;2023-03-05T07:43:21;1.60;99.90
50586;DHT22;36542;51.700;8.846;2023-03-05T07:45:47;1.70;99.90
50586;DHT22;36542;51.700;8.846;2023-03-05T07:48:17;1.70;99.90
50586;DHT22;36542;51.700;8.846;2023-03-05T07:50:45;1.70;99.90
50586;DHT22;36542;51.700;8.846;2023-03-05T07:53:10;1.80;99.90
50586;DHT22;36542;51.700;8.846;2023-03-05T07:55:42;1.90;99.90
50586;DHT22;36542;51.700;8.846;2023-03-05T07:58:08;1.80;99.90
50586;DHT22;36542;51.700;8.846;2023-03-05T08:00:33;1.80;99.90
50586;DHT22;36542;51.700;8.846;2023-03-05T08:02:59;1.90;99.90
50586;DHT22;36542;51.700;8.846;2023-03-05T08:05:24;1.90;99.90
50586;DHT22;36542;51.700;8.846;2023-03-05T08:07:50;1.90;99.90
50586;DHT22;36542;51.700;8.846;2023-03-05T08:10:15;1.90;99.90
50586;DHT22;36542;51.700;8.846;2023-03-05T08:12:41;1.90;99.90
50586;DHT22;36542;51.700;8.846;2023-03-05T08:15:07;1.90;99.90
50586;DHT22;36542;51.700;8.846;2023-03-05T08:17:32;1.90;99.90
50586;DHT22;36542;51.700;8.846;2023-03-05T08:19:58;1.90;99.90
50586;DHT22;36542;51.700;8.846;2023-03-05T08:22:25;2.00;99.90
50586;DHT22;36542;51.700;8.846;2023-03-05T08:24:50;2.00;99.90
50586;DHT22;36542;51.700;8.846;2023-03-05T08:27:16;2.00;99.90
50586;DHT22;36542;51.700;8.846;2023-03-05T08:29:42;2.00;99.90
50586;DHT22;36542;51.700;8.846;2023-03-05T08:32:07;2.10;99.90
50586;DHT22;36542;51.700;8.846;2023-03-05T08:34:33;2.10;99.90
50586;DHT22;36542;51.700;8.846;2023-03-05T08:36:58;2.10;99.90
50586;DHT22;36542;51.700;8.846;2023-03-05T08:39:24;2.00;99.90
50586;DHT22;36542;51.700;8.846;2023-03-05T08:41:49;2.10;99.90
50586;DHT22;36542;51.700;8.846;2023-03-05T08:44:15;2.20;99.90
50586;DHT22;36542;51.700;8.846;2023-03-05T08:46:40;2.30;99.90
50586;DHT22;36542;51.700;8.846;2023-03-05T08:49:06;2.50;99.90
50586;DHT22;36542;51.700;8.846;2023-03-05T08:51:32;2.50;99.90
50586;DHT22;36542;51.700;8.846;2023-03-05T08:53:59;2.60;99.90
50586;DHT22;36542;51.700;8.846;2023-03-05T08:56:24;2.60;99.90
50586;DHT22;36542;51.700;8.846;2023-03-05T08:58:52;2.60;99.90
50586;DHT22;36542;51.700;8.846;2023-03-05T09:01:18;2.60;99.90
50586;DHT22;36542;51.700;8.846;2023-03-05T09:03:43;2.60;99.90
50586;DHT22;36542;51.700;8.846;2023-03-05T09:06:10;2.50;99.90
50586;DHT22;36542;51.700;8.846;2023-03-05T09:08:37;2.60;99.90
50586;DHT22;36542;51.700;8.846;2023-03-05T09:11:04;2.60;99.90
50586;DHT22;36542;51.700;8.846;2023-03-05T09:13:31;2.50;99.90
50586;DHT22;36542;51.700;8.846;2023-03-05T09:16:01;2.50;99.90
50586;DHT22;36542;51.700;8.846;2023-03-05T09:18:28;2.50;99.90
50586;DHT22;36542;51.700;8.846;2023-03-05T09:20:54;2.40;99.90
50586;DHT22;36542;51.700;8.846;2023-03-05T09:23:19;2.40;99.90
50586;DHT22;36542;51.700;8.846;2023-03-05T09:25:45;2.40;99.90
50586;DHT22;36542;51.700;8.846;2023-03-05T09:28:10;2.50;99.90
50586;DHT22;36542;51.700;8.846;2023-03-05T09:30:36;2.40;99.90
50586;DHT22;36542;51.700;8.846;2023-03-05T09:33:02;2.50;99.90
50586;DHT22;36542;51.700;8.846;2023-03-05T09:35:28;2.50;99.90
50586;DHT22;36542;51.700;8.846;2023-03-05T09:37:54;2.60;99.90
50586;DHT22;36542;51.700;8.846;2023-03-05T09:40:20;2.60;99.90
50586;DHT22;36542;51.700;8.846;2023-03-05T09:45:23;2.70;99.90
50586;DHT22;36542;51.700;8.846;2023-03-05T09:48:05;2.80;99.90
50586;DHT22;36542;51.700;8.846;2023-03-05T09:50:43;2.90;99.90
50586;DHT22;36542;51.700;8.846;2023-03-05T09:53:48;3.10;99.90
50586;DHT22;36542;51.700;8.846;2023-03-05T09:56:18;3.10;99.90
50586;DHT22;36542;51.700;8.846;2023-03-05T09:58:46;3.20;99.90
50586;DHT22;36542;51.700;8.846;2023-03-05T10:01:18;3.30;99.90
50586;DHT22;36542;51.700;8.846;2023-03-05T10:03:57;3.60;99.90
50586;DHT22;36542;51.700;8.846;2023-03-05T10:06:30;3.90;99.90
50586;DHT22;36542;51.700;8.846;2023-03-05T10:08:57;4.00;99.90
50586;DHT22;36542;51.700;8.846;2023-03-05T10:13:48;4.00;99.90
50586;DHT22;36542;51.700;8.846;2023-03-05T10:19:04;3.90;99.90
50586;DHT22;36542;51.700;8.846;2023-03-05T10:21:46;3.70;99.90
50586;DHT22;36542;51.700;8.846;2023-03-05T10:24:24;3.70;99.90
50586;DHT22;36542;51.700;8.846;2023-03-05T10:27:04;3.90;99.90
50586;DHT22;36542;51.700;8.846;2023-03-05T10:32:56;3.70;99.90
50586;DHT22;36542;51.700;8.846;2023-03-05T10:36:14;3.90;99.90
50586;DHT22;36542;51.700;8.846;2023-03-05T10:38:59;4.00;99.90
50586;DHT22;36542;51.700;8.846;2023-03-05T10:44:17;4.10;99.90
50586;DHT22;36542;51.700;8.846;2023-03-05T10:46:46;4.10;99.90
50586;DHT22;36542;51.700;8.846;2023-03-05T10:49:19;4.00;99.90
50586;DHT22;36542;51.700;8.846;2023-03-05T10:57:09;4.50;99.90
50586;DHT22;36542;51.700;8.846;2023-03-05T10:59:42;4.70;99.90
50586;DHT22;36542;51.700;8.846;2023-03-05T11:02:10;4.80;99.90
50586;DHT22;36542;51.700;8.846;2023-03-05T11:04:37;4.50;99.90
50586;DHT22;36542;51.700;8.846;2023-03-05T11:07:34;4.50;99.90
50586;DHT22;36542;51.700;8.846;2023-03-05T11:12:36;4.10;99.90
50586;DHT22;36542;51.700;8.846;2023-03-05T11:15:20;4.00;99.90
50586;DHT22;36542;51.700;8.846;2023-03-05T11:18:14;4.00;99.90
50586;DHT22;36542;51.700;8.846;2023-03-05T11:20:40;4.10;99.90
50586;DHT22;36542;51.700;8.846;2023-03-05T11:23:23;4.10;99.90
50586;DHT22;36542;51.700;8.846;2023-03-05T11:26:04;4.20;99.90
50586;DHT22;36542;51.700;8.846;2023-03-05T11:28:55;4.50;99.90
50586;DHT22;36542;51.700;8.846;2023-03-05T11:31:24;4.40;99.90
50586;DHT22;36542;51.700;8.846;2023-03-05T11:36:27;4.50;99.90
50586;DHT22;36542;51.700;8.846;2023-03-05T11:38:58;4.70;99.90
50586;DHT22;36542;51.700;8.846;2023-03-05T11:41:34;5.10;99.90
50586;DHT22;36542;51.700;8.846;2023-03-05T11:44:08;5.60;99.90
50586;DHT22;36542;51.700;8.846;2023-03-05T11:46:42;5.70;99.90
50586;DHT22;36542;51.700;8.846;2023-03-05T11:49:10;5.70;99.90
50586;DHT22;36542;51.700;8.846;2023-03-05T11:54:30;5.40;99.90
50586;DHT22;36542;51.700;8.846;2023-03-05T11:56:59;5.20;99.90
50586;DHT22;36542;51.700;8.846;2023-03-05T11:59:34;4.60;99.90
50586;DHT22;36542;51.700;8.846;2023-03-05T12:02:01;4.40;99.90
50586;DHT22;36542;51.700;8.846;2023-03-05T12:04:28;3.90;99.90
50586;DHT22;36542;51.700;8.846;2023-03-05T12:06:59;3.30;99.90
50586;DHT22;36542;51.700;8.846;2023-03-05T12:09:43;3.20;99.90
50586;DHT22;36542;51.700;8.846;2023-03-05T12:12:39;3.30;99.90
50586;DHT22;36542;51.700;8.846;2023-03-05T12:17:55;3.50;99.90
50586;DHT22;36542;51.700;8.846;2023-03-05T12:22:58;3.70;99.90
50586;DHT22;36542;51.700;8.846;2023-03-05T12:25:26;3.70;99.90
50586;DHT22;36542;51.700;8.846;2023-03-05T12:27:51;3.90;99.90
50586;DHT22;36542;51.700;8.846;2023-03-05T12:33:03;4.00;99.90
50586;DHT22;36542;51.700;8.846;2023-03-05T12:35:31;3.80;99.90
50586;DHT22;36542;51.700;8.846;2023-03-05T12:38:01;3.80;99.90
50586;DHT22;36542;51.700;8.846;2023-03-05T12:40:33;3.80;99.90
50586;DHT22;36542;51.700;8.846;2023-03-05T12:45:29;3.70;99.90
50586;DHT22;36542;51.700;8.846;2023-03-05T12:53:19;4.00;99.90
50586;DHT22;36542;51.700;8.846;2023-03-05T12:55:53;4.10;99.90
50586;DHT22;36542;51.700;8.846;2023-03-05T12:58:41;4.30;99.90
50586;DHT22;36542;51.700;8.846;2023-03-05T13:08:56;3.80;99.90
50586;DHT22;36542;51.700;8.846;2023-03-05T13:11:21;3.80;99.90
50586;DHT22;36542;51.700;8.846;2023-03-05T13:13:48;4.00;99.90
50586;DHT22;36542;51.700;8.846;2023-03-05T13:16:22;4.00;99.90
50586;DHT22;36542;51.700;8.846;2023-03-05T13:18:49;4.20;99.90
50586;DHT22;36542;51.700;8.846;2023-03-05T13:21:20;4.30;99.90
50586;DHT22;36542;51.700;8.846;2023-03-05T13:23:49;4.60;99.90
50586;DHT22;36542;51.700;8.846;2023-03-05T13:26:22;4.60;99.90
50586;DHT22;36542;51.700;8.846;2023-03-05T13:29:14;4.80;99.90
50586;DHT22;36542;51.700;8.846;2023-03-05T13:31:53;4.80;99.90
50586;DHT22;36542;51.700;8.846;2023-03-05T13:34:25;5.00;99.90
50586;DHT22;36542;51.700;8.846;2023-03-05T13:37:17;5.20;99.90
50586;DHT22;36542;51.700;8.846;2023-03-05T13:39:54;5.30;99.90
50586;DHT22;36542;51.700;8.846;2023-03-05T13:42:31;5.50;99.90
50586;DHT22;36542;51.700;8.846;2023-03-05T13:45:05;5.40;99.90
50586;DHT22;36542;51.700;8.846;2023-03-05T13:47:33;5.50;99.90
50586;DHT22;36542;51.700;8.846;2023-03-05T13:50:04;5.40;99.90
50586;DHT22;36542;51.700;8.846;2023-03-05T13:52:36;5.50;99.90
50586;DHT22;36542;51.700;8.846;2023-03-05T13:55:09;5.40;99.90
50586;DHT22;36542;51.700;8.846;2023-03-05T13:57:39;5.10;99.90
50586;DHT22;36542;51.700;8.846;2023-03-05T14:00:27;5.00;99.90
50586;DHT22;36542;51.700;8.846;2023-03-05T14:02:56;4.90;99.90
50586;DHT22;36542;51.700;8.846;2023-03-05T14:05:23;4.80;99.90
50586;DHT22;36542;51.700;8.846;2023-03-05T14:07:50;4.70;99.90
50586;DHT22;36542;51.700;8.846;2023-03-05T14:12:54;4.70;99.90
50586;DHT22;36542;51.700;8.846;2023-03-05T14:18:30;4.80;99.90
50586;DHT22;36542;51.700;8.846;2023-03-05T14:21:07;4.80;99.90
50586;DHT22;36542;51.700;8.846;2023-03-05T14:23:43;4.80;99.90
50586;DHT22;36542;51.700;8.846;2023-03-05T14:31:21;5.10;99.90
50586;DHT22;36542;51.700;8.846;2023-03-05T14:33:48;5.20;99.90
50586;DHT22;36542;51.700;8.846;2023-03-05T14:36:23;5.30;99.90
50586;DHT22;36542;51.700;8.846;2023-03-05T14:38:51;5.40;99.90
50586;DHT22;36542;51.700;8.846;2023-03-05T14:41:40;5.30;99.90
50586;DHT22;36542;51.700;8.846;2023-03-05T14:44:15;5.30;99.90
50586;DHT22;36542;51.700;8.846;2023-03-05T14:46:42;5.30;99.90
50586;DHT22;36542;51.700;8.846;2023-03-05T14:49:07;5.30;99.90
50586;DHT22;36542;51.700;8.846;2023-03-05T14:51:37;5.40;99.90
50586;DHT22;36542;51.700;8.846;2023-03-05T14:54:03;5.20;99.90
50586;DHT22;36542;51.700;8.846;2023-03-05T14:56:29;5.10;99.90
50586;DHT22;36542;51.700;8.846;2023-03-05T14:58:55;5.00;99.90
50586;DHT22;36542;51.700;8.846;2023-03-05T15:01:22;5.00;99.90
50586;DHT22;36542;51.700;8.846;2023-03-05T15:03:49;5.10;99.90
50586;DHT22;36542;51.700;8.846;2023-03-05T15:06:31;5.10;99.90
50586;DHT22;36542;51.700;8.846;2023-03-05T15:08:59;5.10;99.90
50586;DHT22;36542;51.700;8.846;2023-03-05T15:11:24;5.10;99.90
50586;DHT22;36542;51.700;8.846;2023-03-05T15:13:50;5.10;99.90
50586;DHT22;36542;51.700;8.846;2023-03-05T15:16:17;5.10;99.90
50586;DHT22;36542;51.700;8.846;2023-03-05T15:18:43;5.10;99.90
50586;DHT22;36542;51.700;8.846;2023-03-05T15:21:08;5.10;99.90
50586;DHT22;36542;51.700;8.846;2023-03-05T15:23:34;5.00;99.90
50586;DHT22;36542;51.700;8.846;2023-03-05T15:26:07;4.80;99.90
50586;DHT22;36542;51.700;8.846;2023-03-05T15:28:34;4.80;99.90
50586;DHT22;36542;51.700;8.846;2023-03-05T15:31:00;4.70;99.90
50586;DHT22;36542;51.700;8.846;2023-03-05T15:33:26;4.60;99.90
50586;DHT22;36542;51.700;8.846;2023-03-05T15:35:53;4.60;99.90
50586;DHT22;36542;51.700;8.846;2023-03-05T15:38:18;4.60;99.90
50586;DHT22;36542;51.700;8.846;2023-03-05T15:40:44;4.60;99.90
50586;DHT22;36542;51.700;8.846;2023-03-05T15:43:10;4.60;99.90
50586;DHT22;36542;51.700;8.846;2023-03-05T15:45:36;4.60;99.90
50586;DHT22;36542;51.700;8.846;2023-03-05T15:48:01;4.50;99.90
50586;DHT22;36542;51.700;8.846;2023-03-05T15:50:27;4.40;99.90
50586;DHT22;36542;51.700;8.846;2023-03-05T15:52:52;4.40;99.90
50586;DHT22;36542;51.700;8.846;2023-03-05T15:55:18;4.50;99.90
50586;DHT22;36542;51.700;8.846;2023-03-05T15:57:46;4.50;99.90
50586;DHT22;36542;51.700;8.846;2023-03-05T16:00:13;4.50;99.90
50586;DHT22;36542;51.700;8.846;2023-03-05T16:02:39;4.40;99.90
50586;DHT22;36542;51.700;8.846;2023-03-05T16:05:05;4.40;99.90
50586;DHT22;36542;51.700;8.846;2023-03-05T16:07:33;4.30;99.90
50586;DHT22;36542;51.700;8.846;2023-03-05T16:10:01;4.30;99.90
50586;DHT22;36542;51.700;8.846;2023-03-05T16:12:31;4.30;99.90
50586;DHT22;36542;51.700;8.846;2023-03-05T16:15:00;4.30;99.90
50586;DHT22;36542;51.700;8.846;2023-03-05T16:17:26;4.20;99.90
50586;DHT22;36542;51.700;8.846;2023-03-05T16:19:53;4.20;99.90
50586;DHT22;36542;51.700;8.846;2023-03-05T16:22:20;4.10;99.90
50586;DHT22;36542;51.700;8.846;2023-03-05T16:24:45;4.10;99.90
50586;DHT22;36542;51.700;8.846;2023-03-05T16:27:11;4.00;99.90
50586;DHT22;36542;51.700;8.846;2023-03-05T16:29:36;4.00;99.90
50586;DHT22;36542;51.700;8.846;2023-03-05T16:32:03;4.00;99.90
50586;DHT22;36542;51.700;8.846;2023-03-05T16:34:30;4.00;99.90
50586;DHT22;36542;51.700;8.846;2023-03-05T16:36:57;3.90;99.90
50586;DHT22;36542;51.700;8.846;2023-03-05T16:39:25;3.90;99.90
50586;DHT22;36542;51.700;8.846;2023-03-05T16:41:51;3.90;99.90
50586;DHT22;36542;51.700;8.846;2023-03-05T16:44:17;3.90;99.90
50586;DHT22;36542;51.700;8.846;2023-03-05T16:46:42;3.90;99.90
50586;DHT22;36542;51.700;8.846;2023-03-05T16:49:13;3.80;99.90
50586;DHT22;36542;51.700;8.846;2023-03-05T16:51:39;3.80;99.90
50586;DHT22;36542;51.700;8.846;2023-03-05T16:54:05;3.80;99.90
50586;DHT22;36542;51.700;8.846;2023-03-05T16:56:30;3.80;99.90
50586;DHT22;36542;51.700;8.846;2023-03-05T16:58:56;3.70;99.90